sensor_id;sensor_type;location;lat;lon;timestamp;temperature;humidity
35796;DHT22;21916;52.428;13.302;2023-02-13T00:02:02;7.70;99.90
35796;DHT22;21916;52.428;13.302;2023-02-13T00:04:27;7.70;99.90
35796;DHT22;21916;52.428;13.302;2023-02-13T00:06:53;7.60;99.90
35796;DHT22;21916;52.428;13.302;2023-02-13T00:09:19;7.60;99.90
35796;DHT22;21916;52.428;13.302;2023-02-13T00:11:45;7.60;99.90
35796;DHT22;21916;52.428;13.302;2023-02-13T00:14:10;7.60;99.90
35796;DHT22;21916;52.428;13.302;2023-02-13T00:16:37;7.60;99.90
35796;DHT22;21916;52.428;13.302;2023-02-13T00:19:03;7.60;99.90
35796;DHT22;21916;52.428;13.302;2023-02-13T00:21:29;7.60;99.90
35796;DHT22;21916;52.428;13.302;2023-02-13T00:23:54;7.60;99.90
35796;DHT22;21916;52.428;13.302;2023-02-13T00:26:20;7.60;99.90
35796;DHT22;21916;52.428;13.302;2023-02-13T00:28:47;7.50;99.90
35796;DHT22;21916;52.428;13.302;2023-02-13T00:31:19;7.60;99.90
35796;DHT22;21916;52.428;13.302;2023-02-13T00:33:46;7.60;99.90
35796;DHT22;21916;52.428;13.302;2023-02-13T00:36:14;7.60;99.90
35796;DHT22;21916;52.428;13.302;2023-02-13T00:38:41;7.50;99.90
35796;DHT22;21916;52.428;13.302;2023-02-13T00:41:08;7.50;99.90
35796;DHT22;21916;52.428;13.302;2023-02-13T00:43:34;7.50;99.90
35796;DHT22;21916;52.428;13.302;2023-02-13T00:46:01;7.50;99.90
35796;DHT22;21916;52.428;13.302;2023-02-13T00:48:29;7.40;99.90
35796;DHT22;21916;52.428;13.302;2023-02-13T00:50:56;7.40;99.90
35796;DHT22;21916;52.428;13.302;2023-02-13T00:53:23;7.40;99.90
35796;DHT22;21916;52.428;13.302;2023-02-13T00:55:50;7.50;99.90
35796;DHT22;21916;52.428;13.302;2023-02-13T01:03:03;7.50;99.90
35796;DHT22;21916;52.428;13.302;2023-02-13T01:05:29;7.40;99.90
35796;DHT22;21916;52.428;13.302;2023-02-13T01:07:55;7.40;99.90
35796;DHT22;21916;52.428;13.302;2023-02-13T01:10:21;7.50;99.90
35796;DHT22;21916;52.428;13.302;2023-02-13T01:12:47;7.40;99.90
35796;DHT22;21916;52.428;13.302;2023-02-13T01:15:13;7.40;99.90
35796;DHT22;21916;52.428;13.302;2023-02-13T01:17:39;7.40;99.90
35796;DHT22;21916;52.428;13.302;2023-02-13T01:20:07;7.50;99.90
35796;DHT22;21916;52.428;13.302;2023-02-13T01:22:33;7.40;99.90
35796;DHT22;21916;52.428;13.302;2023-02-13T01:24:59;7.40;99.90
35796;DHT22;21916;52.428;13.302;2023-02-13T01:27:29;7.40;99.90
35796;DHT22;21916;52.428;13.302;2023-02-13T01:29:55;7.40;99.90
35796;DHT22;21916;52.428;13.302;2023-02-13T01:32:22;7.40;99.90
35796;DHT22;21916;52.428;13.302;2023-02-13T01:34:48;7.50;99.90
35796;DHT22;21916;52.428;13.302;2023-02-13T01:37:14;7.40;99.90
35796;DHT22;21916;52.428;13.302;2023-02-13T01:39:40;7.40;99.90
35796;DHT22;21916;52.428;13.302;2023-02-13T01:42:16;7.50;99.90
35796;DHT22;21916;52.428;13.302;2023-02-13T01:44:53;7.40;99.90
35796;DHT22;21916;52.428;13.302;2023-02-13T01:47:41;7.50;99.90
35796;DHT22;21916;52.428;13.302;2023-02-13T01:52:35;7.60;99.90
35796;DHT22;21916;52.428;13.302;2023-02-13T01:55:03;7.50;99.90
35796;DHT22;21916;52.428;13.302;2023-02-13T01:57:30;7.40;99.90
35796;DHT22;21916;52.428;13.302;2023-02-13T02:00:04;7.40;99.90
35796;DHT22;21916;52.428;13.302;2023-02-13T02:02:52;7.50;99.90
35796;DHT22;21916;52.428;13.302;2023-02-13T02:05:25;7.50;99.90
35796;DHT22;21916;52.428;13.302;2023-02-13T02:07:53;7.50;99.90
35796;DHT22;21916;52.428;13.302;2023-02-13T02:10:22;7.40;99.90
35796;DHT22;21916;52.428;13.302;2023-02-13T02:12:53;7.30;99.90
35796;DHT22;21916;52.428;13.302;2023-02-13T02:15:20;7.30;99.90
35796;DHT22;21916;52.428;13.302;2023-02-13T02:17:46;7.20;99.90
35796;DHT22;21916;52.428;13.302;2023-02-13T02:27:38;7.20;99.90
35796;DHT22;21916;52.428;13.302;2023-02-13T02:30:02;7.10;99.90
35796;DHT22;21916;52.428;13.302;2023-02-13T02:33:17;7.10;99.90
35796;DHT22;21916;52.428;13.302;2023-02-13T02:40:54;7.00;99.90
35796;DHT22;21916;52.428;13.302;2023-02-13T02:43:25;7.10;99.90
35796;DHT22;21916;52.428;13.302;2023-02-13T02:46:10;7.10;99.90
35796;DHT22;21916;52.428;13.302;2023-02-13T02:48:53;7.10;99.90
35796;DHT22;21916;52.428;13.302;2023-02-13T02:57:42;7.00;99.90
35796;DHT22;21916;52.428;13.302;2023-02-13T03:00:30;7.00;99.90
35796;DHT22;21916;52.428;13.302;2023-02-13T03:03:19;7.10;99.90
35796;DHT22;21916;52.428;13.302;2023-02-13T03:06:15;7.00;99.90
35796;DHT22;21916;52.428;13.302;2023-02-13T03:09:00;7.10;99.90
35796;DHT22;21916;52.428;13.302;2023-02-13T03:11:48;7.10;99.90
35796;DHT22;21916;52.428;13.302;2023-02-13T03:14:34;7.00;99.90
35796;DHT22;21916;52.428;13.302;2023-02-13T03:17:02;7.10;99.90
35796;DHT22;21916;52.428;13.302;2023-02-13T03:20:19;7.00;99.90
35796;DHT22;21916;52.428;13.302;2023-02-13T03:23:24;7.00;99.90
35796;DHT22;21916;52.428;13.302;2023-02-13T03:28:51;7.00;99.90
35796;DHT22;21916;52.428;13.302;2023-02-13T03:33:06;6.90;99.90
35796;DHT22;21916;52.428;13.302;2023-02-13T03:37:54;7.00;99.90
35796;DHT22;21916;52.428;13.302;2023-02-13T03:43:37;7.00;99.90
35796;DHT22;21916;52.428;13.302;2023-02-13T03:46:05;6.90;99.90
35796;DHT22;21916;52.428;13.302;2023-02-13T03:48:34;6.90;99.90
35796;DHT22;21916;52.428;13.302;2023-02-13T03:51:38;6.90;99.90
35796;DHT22;21916;52.428;13.302;2023-02-13T03:54:11;6.90;99.90
35796;DHT22;21916;52.428;13.302;2023-02-13T03:56:42;6.90;99.90
35796;DHT22;21916;52.428;13.302;2023-02-13T03:59:33;6.90;99.90
35796;DHT22;21916;52.428;13.302;2023-02-13T04:02:09;6.90;99.90
35796;DHT22;21916;52.428;13.302;2023-02-13T04:04:50;6.80;99.90
35796;DHT22;21916;52.428;13.302;2023-02-13T04:07:20;6.80;99.90
35796;DHT22;21916;52.428;13.302;2023-02-13T04:10:06;6.90;99.90
35796;DHT22;21916;52.428;13.302;2023-02-13T04:12:46;6.90;99.90
35796;DHT22;21916;52.428;13.302;2023-02-13T04:15:28;6.90;99.90
35796;DHT22;21916;52.428;13.302;2023-02-13T04:18:13;6.90;99.90
35796;DHT22;21916;52.428;13.302;2023-02-13T04:20:40;7.00;99.90
35796;DHT22;21916;52.428;13.302;2023-02-13T04:23:08;7.00;99.90
35796;DHT22;21916;52.428;13.302;2023-02-13T04:25:36;7.00;99.90
35796;DHT22;21916;52.428;13.302;2023-02-13T04:28:02;7.00;99.90
35796;DHT22;21916;52.428;13.302;2023-02-13T04:30:28;7.00;99.90
35796;DHT22;21916;52.428;13.302;2023-02-13T04:32:54;6.90;99.90
35796;DHT22;21916;52.428;13.302;2023-02-13T04:35:20;7.00;99.90
35796;DHT22;21916;52.428;13.302;2023-02-13T04:37:47;7.00;99.90
35796;DHT22;21916;52.428;13.302;2023-02-13T04:40:13;7.00;99.90
35796;DHT22;21916;52.428;13.302;2023-02-13T04:42:38;6.90;99.90
35796;DHT22;21916;52.428;13.302;2023-02-13T04:45:04;6.90;99.90
35796;DHT22;21916;52.428;13.302;2023-02-13T04:47:30;6.80;99.90
35796;DHT22;21916;52.428;13.302;2023-02-13T04:49:56;6.80;99.90
35796;DHT22;21916;52.428;13.302;2023-02-13T04:52:22;6.80;99.90
35796;DHT22;21916;52.428;13.302;2023-02-13T04:54:48;6.90;99.90
35796;DHT22;21916;52.428;13.302;2023-02-13T04:57:14;6.80;99.90
35796;DHT22;21916;52.428;13.302;2023-02-13T04:59:40;6.90;99.90
35796;DHT22;21916;52.428;13.302;2023-02-13T05:02:06;6.90;99.90
35796;DHT22;21916;52.428;13.302;2023-02-13T05:04:32;7.00;99.90
35796;DHT22;21916;52.428;13.302;2023-02-13T05:06:58;7.00;99.90
35796;DHT22;21916;52.428;13.302;2023-02-13T05:09:24;6.90;99.90
35796;DHT22;21916;52.428;13.302;2023-02-13T05:11:53;6.80;99.90
35796;DHT22;21916;52.428;13.302;2023-02-13T05:14:19;6.80;99.90
35796;DHT22;21916;52.428;13.302;2023-02-13T05:16:45;6.80;99.90
35796;DHT22;21916;52.428;13.302;2023-02-13T05:19:11;6.80;99.90
35796;DHT22;21916;52.428;13.302;2023-02-13T05:21:37;6.80;99.90
35796;DHT22;21916;52.428;13.302;2023-02-13T05:24:21;6.80;99.90
35796;DHT22;21916;52.428;13.302;2023-02-13T05:26:47;6.80;99.90
35796;DHT22;21916;52.428;13.302;2023-02-13T05:29:14;6.90;99.90
35796;DHT22;21916;52.428;13.302;2023-02-13T05:31:47;6.90;99.90
35796;DHT22;21916;52.428;13.302;2023-02-13T05:34:13;6.80;99.90
35796;DHT22;21916;52.428;13.302;2023-02-13T05:36:39;6.80;99.90
35796;DHT22;21916;52.428;13.302;2023-02-13T05:39:05;6.90;99.90
35796;DHT22;21916;52.428;13.302;2023-02-13T05:41:32;6.90;99.90
35796;DHT22;21916;52.428;13.302;2023-02-13T05:43:58;6.90;99.90
35796;DHT22;21916;52.428;13.302;2023-02-13T05:46:23;6.90;99.90
35796;DHT22;21916;52.428;13.302;2023-02-13T05:48:50;7.00;99.90
35796;DHT22;21916;52.428;13.302;2023-02-13T05:51:20;6.90;99.90
35796;DHT22;21916;52.428;13.302;2023-02-13T05:53:46;6.90;99.90
35796;DHT22;21916;52.428;13.302;2023-02-13T05:56:12;7.00;99.90
35796;DHT22;21916;52.428;13.302;2023-02-13T05:58:38;6.90;99.90
35796;DHT22;21916;52.428;13.302;2023-02-13T06:01:04;7.00;99.90
35796;DHT22;21916;52.428;13.302;2023-02-13T06:03:31;7.00;99.90
35796;DHT22;21916;52.428;13.302;2023-02-13T06:05:58;6.90;99.90
35796;DHT22;21916;52.428;13.302;2023-02-13T06:08:25;6.90;99.90
35796;DHT22;21916;52.428;13.302;2023-02-13T06:10:51;6.90;99.90
35796;DHT22;21916;52.428;13.302;2023-02-13T06:13:17;6.90;99.90
35796;DHT22;21916;52.428;13.302;2023-02-13T06:15:43;7.00;99.90
35796;DHT22;21916;52.428;13.302;2023-02-13T06:18:10;7.00;99.90
35796;DHT22;21916;52.428;13.302;2023-02-13T06:20:36;7.00;99.90
35796;DHT22;21916;52.428;13.302;2023-02-13T06:23:02;7.10;99.90
35796;DHT22;21916;52.428;13.302;2023-02-13T06:25:28;7.10;99.90
35796;DHT22;21916;52.428;13.302;2023-02-13T06:27:54;7.10;99.90
35796;DHT22;21916;52.428;13.302;2023-02-13T06:30:21;7.10;99.90
35796;DHT22;21916;52.428;13.302;2023-02-13T06:32:47;7.10;99.90
35796;DHT22;21916;52.428;13.302;2023-02-13T06:35:14;7.10;99.90
35796;DHT22;21916;52.428;13.302;2023-02-13T06:37:41;7.10;99.90
35796;DHT22;21916;52.428;13.302;2023-02-13T06:40:09;7.00;99.90
35796;DHT22;21916;52.428;13.302;2023-02-13T06:42:36;7.00;99.90
35796;DHT22;21916;52.428;13.302;2023-02-13T06:45:02;7.10;99.90
35796;DHT22;21916;52.428;13.302;2023-02-13T06:47:28;7.10;99.90
35796;DHT22;21916;52.428;13.302;2023-02-13T06:49:54;7.10;99.90
35796;DHT22;21916;52.428;13.302;2023-02-13T06:52:20;7.10;99.90
35796;DHT22;21916;52.428;13.302;2023-02-13T06:54:45;7.10;99.90
35796;DHT22;21916;52.428;13.302;2023-02-13T06:57:11;7.10;99.90
35796;DHT22;21916;52.428;13.302;2023-02-13T06:59:37;7.10;99.90
35796;DHT22;21916;52.428;13.302;2023-02-13T07:02:03;7.10;99.90
35796;DHT22;21916;52.428;13.302;2023-02-13T07:04:29;7.10;99.90
35796;DHT22;21916;52.428;13.302;2023-02-13T07:06:55;7.10;99.90
35796;DHT22;21916;52.428;13.302;2023-02-13T07:09:22;7.00;99.90
35796;DHT22;21916;52.428;13.302;2023-02-13T07:11:48;7.00;99.90
35796;DHT22;21916;52.428;13.302;2023-02-13T07:14:14;7.00;99.90
35796;DHT22;21916;52.428;13.302;2023-02-13T07:16:40;7.00;99.90
35796;DHT22;21916;52.428;13.302;2023-02-13T07:19:06;7.00;99.90
35796;DHT22;21916;52.428;13.302;2023-02-13T07:21:32;7.00;99.90
35796;DHT22;21916;52.428;13.302;2023-02-13T07:23:59;7.00;99.90
35796;DHT22;21916;52.428;13.302;2023-02-13T07:26:28;7.10;99.90
35796;DHT22;21916;52.428;13.302;2023-02-13T07:28:54;7.20;99.90
35796;DHT22;21916;52.428;13.302;2023-02-13T07:31:20;7.20;99.90
35796;DHT22;21916;52.428;13.302;2023-02-13T07:33:49;7.10;99.90
35796;DHT22;21916;52.428;13.302;2023-02-13T07:36:17;7.10;99.90
35796;DHT22;21916;52.428;13.302;2023-02-13T07:38:43;7.10;99.90
35796;DHT22;21916;52.428;13.302;2023-02-13T07:41:09;7.20;99.90
35796;DHT22;21916;52.428;13.302;2023-02-13T07:43:35;7.10;99.90
35796;DHT22;21916;52.428;13.302;2023-02-13T07:46:03;7.20;99.90
35796;DHT22;21916;52.428;13.302;2023-02-13T07:48:29;7.20;99.90
35796;DHT22;21916;52.428;13.302;2023-02-13T07:51:00;7.20;99.90
35796;DHT22;21916;52.428;13.302;2023-02-13T07:53:26;7.30;99.90
35796;DHT22;21916;52.428;13.302;2023-02-13T07:55:52;7.20;99.90
35796;DHT22;21916;52.428;13.302;2023-02-13T07:58:18;7.20;99.90
35796;DHT22;21916;52.428;13.302;2023-02-13T08:00:43;7.30;99.90
35796;DHT22;21916;52.428;13.302;2023-02-13T08:03:10;7.40;99.90
35796;DHT22;21916;52.428;13.302;2023-02-13T08:05:36;7.40;99.90
35796;DHT22;21916;52.428;13.302;2023-02-13T08:08:02;7.30;99.90
35796;DHT22;21916;52.428;13.302;2023-02-13T08:10:28;7.30;99.90
35796;DHT22;21916;52.428;13.302;2023-02-13T08:13:13;7.40;99.90
35796;DHT22;21916;52.428;13.302;2023-02-13T08:15:40;7.40;99.90
35796;DHT22;21916;52.428;13.302;2023-02-13T08:18:06;7.40;99.90
35796;DHT22;21916;52.428;13.302;2023-02-13T08:20:32;7.30;99.90
35796;DHT22;21916;52.428;13.302;2023-02-13T08:23:05;7.40;99.90
35796;DHT22;21916;52.428;13.302;2023-02-13T08:25:32;7.50;99.90
35796;DHT22;21916;52.428;13.302;2023-02-13T08:27:59;7.50;99.90
35796;DHT22;21916;52.428;13.302;2023-02-13T08:30:25;7.50;99.90
35796;DHT22;21916;52.428;13.302;2023-02-13T08:32:51;7.60;99.90
35796;DHT22;21916;52.428;13.302;2023-02-13T08:35:17;7.60;99.90
35796;DHT22;21916;52.428;13.302;2023-02-13T08:37:43;7.60;99.90
35796;DHT22;21916;52.428;13.302;2023-02-13T08:40:09;7.60;99.90
35796;DHT22;21916;52.428;13.302;2023-02-13T08:42:36;7.70;99.90
35796;DHT22;21916;52.428;13.302;2023-02-13T08:45:02;7.70;99.90
35796;DHT22;21916;52.428;13.302;2023-02-13T08:47:28;7.60;99.90
35796;DHT22;21916;52.428;13.302;2023-02-13T08:49:54;7.70;99.90
35796;DHT22;21916;52.428;13.302;2023-02-13T08:52:20;7.70;99.90
35796;DHT22;21916;52.428;13.302;2023-02-13T08:54:46;7.80;99.90
35796;DHT22;21916;52.428;13.302;2023-02-13T08:57:11;7.70;99.90
35796;DHT22;21916;52.428;13.302;2023-02-13T08:59:37;7.70;99.90
35796;DHT22;21916;52.428;13.302;2023-02-13T09:02:03;7.70;99.90
35796;DHT22;21916;52.428;13.302;2023-02-13T09:04:29;7.70;99.90
35796;DHT22;21916;52.428;13.302;2023-02-13T09:06:57;7.80;99.90
35796;DHT22;21916;52.428;13.302;2023-02-13T09:09:23;7.80;99.90
35796;DHT22;21916;52.428;13.302;2023-02-13T09:11:49;7.80;99.90
35796;DHT22;21916;52.428;13.302;2023-02-13T09:14:16;7.80;99.90
35796;DHT22;21916;52.428;13.302;2023-02-13T09:16:42;7.80;99.90
35796;DHT22;21916;52.428;13.302;2023-02-13T09:19:07;7.80;99.90
35796;DHT22;21916;52.428;13.302;2023-02-13T09:21:33;7.80;99.90
35796;DHT22;21916;52.428;13.302;2023-02-13T09:23:59;7.80;99.90
35796;DHT22;21916;52.428;13.302;2023-02-13T09:26:25;7.80;99.90
35796;DHT22;21916;52.428;13.302;2023-02-13T09:28:51;7.80;99.90
35796;DHT22;21916;52.428;13.302;2023-02-13T09:31:18;7.80;99.90
35796;DHT22;21916;52.428;13.302;2023-02-13T09:33:46;7.80;99.90
35796;DHT22;21916;52.428;13.302;2023-02-13T09:36:15;7.80;99.90
35796;DHT22;21916;52.428;13.302;2023-02-13T09:38:41;7.80;99.90
35796;DHT22;21916;52.428;13.302;2023-02-13T09:41:13;7.80;99.90
35796;DHT22;21916;52.428;13.302;2023-02-13T09:43:55;7.90;99.90
35796;DHT22;21916;52.428;13.302;2023-02-13T09:48:53;8.10;99.90
35796;DHT22;21916;52.428;13.302;2023-02-13T09:51:21;8.10;99.90
35796;DHT22;21916;52.428;13.302;2023-02-13T09:54:04;8.00;99.90
35796;DHT22;21916;52.428;13.302;2023-02-13T09:56:50;8.10;99.90
35796;DHT22;21916;52.428;13.302;2023-02-13T10:08:35;7.90;99.90
35796;DHT22;21916;52.428;13.302;2023-02-13T10:16:32;7.80;99.90
35796;DHT22;21916;52.428;13.302;2023-02-13T10:25:07;7.90;99.90
35796;DHT22;21916;52.428;13.302;2023-02-13T10:27:43;7.90;99.90
35796;DHT22;21916;52.428;13.302;2023-02-13T10:32:46;7.90;99.90
35796;DHT22;21916;52.428;13.302;2023-02-13T10:35:29;8.00;99.90
35796;DHT22;21916;52.428;13.302;2023-02-13T10:37:58;8.00;99.90
35796;DHT22;21916;52.428;13.302;2023-02-13T10:40:31;8.20;99.90
35796;DHT22;21916;52.428;13.302;2023-02-13T10:43:07;8.20;99.90
35796;DHT22;21916;52.428;13.302;2023-02-13T10:45:53;8.30;99.90
35796;DHT22;21916;52.428;13.302;2023-02-13T10:48:30;8.40;99.90
35796;DHT22;21916;52.428;13.302;2023-02-13T10:51:10;8.30;99.90
35796;DHT22;21916;52.428;13.302;2023-02-13T10:53:45;8.20;99.90
35796;DHT22;21916;52.428;13.302;2023-02-13T11:01:57;8.10;99.90
35796;DHT22;21916;52.428;13.302;2023-02-13T11:04:25;8.20;99.90
35796;DHT22;21916;52.428;13.302;2023-02-13T11:06:55;8.10;99.90
35796;DHT22;21916;52.428;13.302;2023-02-13T11:09:22;8.10;99.90
35796;DHT22;21916;52.428;13.302;2023-02-13T11:11:49;8.00;99.90
35796;DHT22;21916;52.428;13.302;2023-02-13T11:14:17;7.90;99.90
35796;DHT22;21916;52.428;13.302;2023-02-13T11:16:58;8.00;99.90
35796;DHT22;21916;52.428;13.302;2023-02-13T11:19:34;8.00;99.90
35796;DHT22;21916;52.428;13.302;2023-02-13T11:22:12;7.90;99.90
35796;DHT22;21916;52.428;13.302;2023-02-13T11:24:40;7.90;99.90
35796;DHT22;21916;52.428;13.302;2023-02-13T11:27:09;8.00;99.90
35796;DHT22;21916;52.428;13.302;2023-02-13T11:29:54;8.10;99.90
35796;DHT22;21916;52.428;13.302;2023-02-13T11:32:25;8.10;99.90
35796;DHT22;21916;52.428;13.302;2023-02-13T11:34:51;8.10;99.90
35796;DHT22;21916;52.428;13.302;2023-02-13T11:37:27;8.10;99.90
35796;DHT22;21916;52.428;13.302;2023-02-13T11:39:58;8.10;99.90
35796;DHT22;21916;52.428;13.302;2023-02-13T11:42:30;8.20;99.90
35796;DHT22;21916;52.428;13.302;2023-02-13T11:45:23;8.20;99.90
35796;DHT22;21916;52.428;13.302;2023-02-13T11:47:51;8.30;99.90
35796;DHT22;21916;52.428;13.302;2023-02-13T11:50:20;8.40;99.90
35796;DHT22;21916;52.428;13.302;2023-02-13T11:53:16;8.40;99.90
35796;DHT22;21916;52.428;13.302;2023-02-13T11:55:44;8.40;99.90
35796;DHT22;21916;52.428;13.302;2023-02-13T12:00:38;8.30;99.90
35796;DHT22;21916;52.428;13.302;2023-02-13T12:03:31;8.30;99.90
35796;DHT22;21916;52.428;13.302;2023-02-13T12:06:14;8.20;99.90
35796;DHT22;21916;52.428;13.302;2023-02-13T12:08:43;8.20;99.90
35796;DHT22;21916;52.428;13.302;2023-02-13T12:13:50;8.30;99.90
35796;DHT22;21916;52.428;13.302;2023-02-13T12:16:50;8.40;99.90
35796;DHT22;21916;52.428;13.302;2023-02-13T12:19:28;8.40;99.90
35796;DHT22;21916;52.428;13.302;2023-02-13T12:28:06;8.50;99.90
35796;DHT22;21916;52.428;13.302;2023-02-13T12:41:45;8.70;99.90
35796;DHT22;21916;52.428;13.302;2023-02-13T12:47:27;8.80;99.90
35796;DHT22;21916;52.428;13.302;2023-02-13T12:55:37;8.70;99.90
35796;DHT22;21916;52.428;13.302;2023-02-13T13:09:39;8.70;99.90
35796;DHT22;21916;52.428;13.302;2023-02-13T13:12:20;8.60;99.90
35796;DHT22;21916;52.428;13.302;2023-02-13T13:17:47;8.50;99.90
35796;DHT22;21916;52.428;13.302;2023-02-13T13:23:30;8.50;99.90
35796;DHT22;21916;52.428;13.302;2023-02-13T13:28:52;8.30;99.90
35796;DHT22;21916;52.428;13.302;2023-02-13T13:31:20;8.30;99.90
35796;DHT22;21916;52.428;13.302;2023-02-13T13:33:48;8.20;99.90
35796;DHT22;21916;52.428;13.302;2023-02-13T13:47:35;8.20;99.90
35796;DHT22;21916;52.428;13.302;2023-02-13T13:50:21;8.10;99.90
35796;DHT22;21916;52.428;13.302;2023-02-13T13:53:09;8.10;99.90
35796;DHT22;21916;52.428;13.302;2023-02-13T13:56:02;8.10;99.90
35796;DHT22;21916;52.428;13.302;2023-02-13T13:58:37;8.20;99.90
35796;DHT22;21916;52.428;13.302;2023-02-13T14:03:40;8.40;99.90
35796;DHT22;21916;52.428;13.302;2023-02-13T14:06:17;8.50;99.90
35796;DHT22;21916;52.428;13.302;2023-02-13T14:11:37;8.30;99.90
35796;DHT22;21916;52.428;13.302;2023-02-13T14:16:48;8.30;99.90
35796;DHT22;21916;52.428;13.302;2023-02-13T14:19:33;8.20;99.90
35796;DHT22;21916;52.428;13.302;2023-02-13T14:22:33;8.10;99.90
35796;DHT22;21916;52.428;13.302;2023-02-13T14:25:01;8.10;99.90
35796;DHT22;21916;52.428;13.302;2023-02-13T14:27:35;8.00;99.90
35796;DHT22;21916;52.428;13.302;2023-02-13T14:30:04;8.20;99.90
35796;DHT22;21916;52.428;13.302;2023-02-13T14:32:35;8.20;99.90
35796;DHT22;21916;52.428;13.302;2023-02-13T14:35:14;8.20;99.90
35796;DHT22;21916;52.428;13.302;2023-02-13T14:37:56;8.20;99.90
35796;DHT22;21916;52.428;13.302;2023-02-13T14:40:31;8.10;99.90
35796;DHT22;21916;52.428;13.302;2023-02-13T14:45:57;8.10;99.90
35796;DHT22;21916;52.428;13.302;2023-02-13T14:48:41;8.00;99.90
35796;DHT22;21916;52.428;13.302;2023-02-13T14:51:16;7.90;99.90
35796;DHT22;21916;52.428;13.302;2023-02-13T14:53:50;7.90;99.90
35796;DHT22;21916;52.428;13.302;2023-02-13T14:56:19;7.90;99.90
35796;DHT22;21916;52.428;13.302;2023-02-13T14:59:14;7.90;99.90
35796;DHT22;21916;52.428;13.302;2023-02-13T15:01:58;7.90;99.90
35796;DHT22;21916;52.428;13.302;2023-02-13T15:04:31;8.00;99.90
35796;DHT22;21916;52.428;13.302;2023-02-13T15:07:01;7.90;99.90
35796;DHT22;21916;52.428;13.302;2023-02-13T15:09:37;7.90;99.90
35796;DHT22;21916;52.428;13.302;2023-02-13T15:12:31;7.90;99.90
35796;DHT22;21916;52.428;13.302;2023-02-13T15:14:58;7.90;99.90
35796;DHT22;21916;52.428;13.302;2023-02-13T15:17:31;7.90;99.90
35796;DHT22;21916;52.428;13.302;2023-02-13T15:22:37;7.90;99.90
35796;DHT22;21916;52.428;13.302;2023-02-13T15:25:05;7.90;99.90
35796;DHT22;21916;52.428;13.302;2023-02-13T15:27:36;7.90;99.90
35796;DHT22;21916;52.428;13.302;2023-02-13T15:30:20;7.90;99.90
35796;DHT22;21916;52.428;13.302;2023-02-13T15:32:54;7.80;99.90
35796;DHT22;21916;52.428;13.302;2023-02-13T15:35:23;7.80;99.90
35796;DHT22;21916;52.428;13.302;2023-02-13T15:37:49;7.80;99.90
35796;DHT22;21916;52.428;13.302;2023-02-13T15:42:47;7.70;99.90
35796;DHT22;21916;52.428;13.302;2023-02-13T15:45:15;7.70;99.90
35796;DHT22;21916;52.428;13.302;2023-02-13T15:47:43;7.70;99.90
35796;DHT22;21916;52.428;13.302;2023-02-13T15:52:47;7.70;99.90
35796;DHT22;21916;52.428;13.302;2023-02-13T15:55:22;7.70;99.90
35796;DHT22;21916;52.428;13.302;2023-02-13T15:57:49;7.80;99.90
35796;DHT22;21916;52.428;13.302;2023-02-13T16:00:39;7.70;99.90
35796;DHT22;21916;52.428;13.302;2023-02-13T16:03:12;7.80;99.90
35796;DHT22;21916;52.428;13.302;2023-02-13T16:05:39;7.70;99.90
35796;DHT22;21916;52.428;13.302;2023-02-13T16:08:26;7.70;99.90
35796;DHT22;21916;52.428;13.302;2023-02-13T16:14:01;7.60;99.90
35796;DHT22;21916;52.428;13.302;2023-02-13T16:16:32;7.60;99.90
35796;DHT22;21916;52.428;13.302;2023-02-13T16:18:59;7.70;99.90
35796;DHT22;21916;52.428;13.302;2023-02-13T16:21:26;7.60;99.90
35796;DHT22;21916;52.428;13.302;2023-02-13T16:23:59;7.50;99.90
35796;DHT22;21916;52.428;13.302;2023-02-13T16:26:27;7.60;99.90
35796;DHT22;21916;52.428;13.302;2023-02-13T16:28:53;7.50;99.90
35796;DHT22;21916;52.428;13.302;2023-02-13T16:31:20;7.50;99.90
35796;DHT22;21916;52.428;13.302;2023-02-13T16:33:47;7.50;99.90
35796;DHT22;21916;52.428;13.302;2023-02-13T16:38:43;7.50;99.90
35796;DHT22;21916;52.428;13.302;2023-02-13T16:43:52;7.50;99.90
35796;DHT22;21916;52.428;13.302;2023-02-13T16:46:25;7.50;99.90
35796;DHT22;21916;52.428;13.302;2023-02-13T16:53:58;7.50;99.90
35796;DHT22;21916;52.428;13.302;2023-02-13T16:56:25;7.50;99.90
35796;DHT22;21916;52.428;13.302;2023-02-13T16:59:04;7.50;99.90
35796;DHT22;21916;52.428;13.302;2023-02-13T17:01:34;7.50;99.90
35796;DHT22;21916;52.428;13.302;2023-02-13T17:04:18;7.50;99.90
35796;DHT22;21916;52.428;13.302;2023-02-13T17:06:46;7.50;99.90
35796;DHT22;21916;52.428;13.302;2023-02-13T17:09:12;7.40;99.90
35796;DHT22;21916;52.428;13.302;2023-02-13T17:11:38;7.40;99.90
35796;DHT22;21916;52.428;13.302;2023-02-13T17:14:04;7.40;99.90
35796;DHT22;21916;52.428;13.302;2023-02-13T17:16:30;7.40;99.90
35796;DHT22;21916;52.428;13.302;2023-02-13T17:18:56;7.40;99.90
35796;DHT22;21916;52.428;13.302;2023-02-13T17:21:22;7.40;99.90
35796;DHT22;21916;52.428;13.302;2023-02-13T17:23:48;7.50;99.90
35796;DHT22;21916;52.428;13.302;2023-02-13T17:26:13;7.40;99.90
35796;DHT22;21916;52.428;13.302;2023-02-13T17:28:39;7.30;99.90
35796;DHT22;21916;52.428;13.302;2023-02-13T17:31:09;7.30;99.90
35796;DHT22;21916;52.428;13.302;2023-02-13T17:33:35;7.40;99.90
35796;DHT22;21916;52.428;13.302;2023-02-13T17:36:03;7.30;99.90
35796;DHT22;21916;52.428;13.302;2023-02-13T17:38:29;7.30;99.90
35796;DHT22;21916;52.428;13.302;2023-02-13T17:40:54;7.40;99.90
35796;DHT22;21916;52.428;13.302;2023-02-13T17:43:21;7.40;99.90
35796;DHT22;21916;52.428;13.302;2023-02-13T17:45:47;7.40;99.90
35796;DHT22;21916;52.428;13.302;2023-02-13T17:48:14;7.40;99.90
35796;DHT22;21916;52.428;13.302;2023-02-13T17:50:40;7.30;99.90
35796;DHT22;21916;52.428;13.302;2023-02-13T17:53:14;7.40;99.90
35796;DHT22;21916;52.428;13.302;2023-02-13T17:55:41;7.40;99.90
35796;DHT22;21916;52.428;13.302;2023-02-13T17:58:07;7.30;99.90
35796;DHT22;21916;52.428;13.302;2023-02-13T18:00:33;7.30;99.90
35796;DHT22;21916;52.428;13.302;2023-02-13T18:03:00;7.30;99.90
35796;DHT22;21916;52.428;13.302;2023-02-13T18:05:26;7.50;99.90
35796;DHT22;21916;52.428;13.302;2023-02-13T18:07:52;7.50;99.90
35796;DHT22;21916;52.428;13.302;2023-02-13T18:10:24;7.50;99.90
35796;DHT22;21916;52.428;13.302;2023-02-13T18:12:51;7.40;99.90
35796;DHT22;21916;52.428;13.302;2023-02-13T18:15:17;7.40;99.90
35796;DHT22;21916;52.428;13.302;2023-02-13T18:17:44;7.40;99.90
35796;DHT22;21916;52.428;13.302;2023-02-13T18:20:16;7.30;99.90
35796;DHT22;21916;52.428;13.302;2023-02-13T18:22:42;7.20;99.90
35796;DHT22;21916;52.428;13.302;2023-02-13T18:25:09;7.20;99.90
35796;DHT22;21916;52.428;13.302;2023-02-13T18:27:35;7.20;99.90
35796;DHT22;21916;52.428;13.302;2023-02-13T18:30:01;7.20;99.90
35796;DHT22;21916;52.428;13.302;2023-02-13T18:32:27;7.10;99.90
35796;DHT22;21916;52.428;13.302;2023-02-13T18:34:53;7.20;99.90